createdAt,value
2023-02-28T00:00:15.665Z,101896.84
2023-02-28T00:01:17.154Z,101905.47
2023-02-28T00:02:19.885Z,101900.50
2023-02-28T00:03:22.452Z,101896.03
2023-02-28T00:04:24.020Z,101892.69
2023-02-28T00:05:28.228Z,101885.81
2023-02-28T00:06:29.866Z,101894.81
2023-02-28T00:07:32.854Z,101891.38
2023-02-28T00:08:34.671Z,101888.56
2023-02-28T00:09:37.264Z,101896.72
2023-02-28T00:10:39.458Z,101893.28
2023-02-28T00:11:42.449Z,101902.38
2023-02-28T00:12:45.390Z,101897.59
2023-02-28T00:13:49.449Z,101883.69
2023-02-28T00:14:51.079Z,101892.97
2023-02-28T00:16:02.202Z,101890.34
2023-02-28T00:17:03.757Z,101896.00
2023-02-28T00:18:07.163Z,101900.28
2023-02-28T00:19:09.021Z,101886.38
2023-02-28T00:20:14.174Z,101881.91
2023-02-28T00:21:16.440Z,101883.13
2023-02-28T00:22:20.206Z,101883.19
2023-02-28T00:23:21.767Z,101886.41
2023-02-28T00:24:24.227Z,101887.09
2023-02-28T00:25:26.481Z,101886.81
2023-02-28T00:26:29.186Z,101881.97
2023-02-28T00:27:30.859Z,101889.47
2023-02-28T00:28:34.910Z,101887.06
2023-02-28T00:29:36.468Z,101882.44
2023-02-28T00:30:38.922Z,101886.28
2023-02-28T00:31:40.551Z,101885.91
2023-02-28T00:32:43.305Z,101885.31
2023-02-28T00:33:44.845Z,101884.75
2023-02-28T00:34:47.365Z,101889.78
2023-02-28T00:35:49.779Z,101888.59
2023-02-28T00:36:52.337Z,101883.47
2023-02-28T00:37:53.853Z,101890.66
2023-02-28T00:38:56.410Z,101887.13
2023-02-28T00:39:58.103Z,101886.28
2023-02-28T00:41:05.584Z,101879.53
2023-02-28T00:42:08.500Z,101886.66
2023-02-28T00:43:11.072Z,101892.50
2023-02-28T00:44:14.001Z,101883.41
2023-02-28T00:45:16.585Z,101886.84
2023-02-28T00:46:18.263Z,101889.25
2023-02-28T00:47:20.730Z,101893.59
2023-02-28T00:48:22.418Z,101888.34
2023-02-28T00:49:25.320Z,101887.56
2023-02-28T00:50:27.166Z,101884.22
2023-02-28T00:51:30.269Z,101889.88
2023-02-28T00:52:32.019Z,101885.78
2023-02-28T00:53:34.577Z,101886.09
2023-02-28T00:54:36.472Z,101880.91
2023-02-28T00:55:38.899Z,101892.00
2023-02-28T00:56:40.422Z,101885.16
2023-02-28T00:57:42.994Z,101883.03
2023-02-28T00:58:44.488Z,101887.91
2023-02-28T00:59:48.331Z,101884.91
2023-02-28T01:00:50.130Z,101888.84
2023-02-28T01:01:53.080Z,101885.97
2023-02-28T01:02:55.557Z,101883.13
2023-02-28T01:03:57.345Z,101887.66
2023-02-28T01:04:59.871Z,101879.75
2023-02-28T01:06:02.393Z,101876.66
2023-02-28T01:07:04.386Z,101873.97
2023-02-28T01:08:07.383Z,101877.56
2023-02-28T01:09:09.349Z,101869.88
2023-02-28T01:10:12.921Z,101873.59
2023-02-28T01:11:17.583Z,101883.13
2023-02-28T01:12:20.353Z,101876.97
2023-02-28T01:13:24.196Z,101873.94
2023-02-28T01:14:26.826Z,101867.72
2023-02-28T01:15:32.934Z,101873.75
2023-02-28T01:16:34.515Z,101869.28
2023-02-28T01:17:37.990Z,101873.19
2023-02-28T01:18:41.421Z,101870.59
2023-02-28T01:19:44.449Z,101874.81
2023-02-28T01:20:47.091Z,101871.78
2023-02-28T01:21:49.543Z,101874.72
2023-02-28T01:22:51.134Z,101874.06
2023-02-28T01:23:53.647Z,101873.53
2023-02-28T01:24:55.264Z,101885.47
2023-02-28T01:25:57.758Z,101878.34
2023-02-28T01:26:59.558Z,101873.19
2023-02-28T01:28:02.103Z,101872.72
2023-02-28T01:29:04.005Z,101873.47
2023-02-28T01:30:07.696Z,101885.19
2023-02-28T01:31:11.495Z,101874.31
2023-02-28T01:32:14.065Z,101876.34
2023-02-28T01:33:16.177Z,101880.88
2023-02-28T01:34:20.105Z,101876.38
2023-02-28T01:35:21.634Z,101883.69
2023-02-28T01:36:26.142Z,101868.19
2023-02-28T01:37:28.099Z,101873.75
2023-02-28T01:38:31.410Z,101872.34
2023-02-28T01:39:32.959Z,101875.59
2023-02-28T01:40:35.746Z,101875.75
2023-02-28T01:41:37.415Z,101875.25
2023-02-28T01:42:40.021Z,101867.63
2023-02-28T01:43:56.256Z,101871.91
2023-02-28T01:45:23.333Z,101872.50
2023-02-28T01:46:26.376Z,101873.31
2023-02-28T01:47:33.439Z,101870.09
2023-02-28T01:48:38.490Z,101866.66
2023-02-28T01:49:41.347Z,101867.94
2023-02-28T01:50:46.204Z,101870.69
2023-02-28T01:51:52.801Z,101862.41
2023-02-28T01:52:57.366Z,101865.63
2023-02-28T01:54:03.736Z,101858.84
2023-02-28T01:55:07.998Z,101863.72
2023-02-28T01:56:12.758Z,101863.41
2023-02-28T01:57:17.738Z,101861.59
2023-02-28T01:58:20.560Z,101871.03
2023-02-28T01:59:27.166Z,101860.25
2023-02-28T02:00:31.876Z,101856.16
2023-02-28T02:01:35.091Z,101856.16
2023-02-28T02:02:38.908Z,101853.34
2023-02-28T02:03:40.464Z,101863.72
2023-02-28T02:04:52.100Z,101860.78
2023-02-28T02:05:53.649Z,101857.50
2023-02-28T02:06:57.097Z,101857.03
2023-02-28T02:08:04.070Z,101858.56
2023-02-28T02:09:07.235Z,101860.44
2023-02-28T02:10:15.794Z,101847.69
2023-02-28T02:11:20.814Z,101850.94
2023-02-28T02:12:34.653Z,101860.69
2023-02-28T02:13:56.213Z,101853.19
2023-02-28T02:15:06.512Z,101848.06
2023-02-28T02:16:22.675Z,101845.09
2023-02-28T02:17:33.330Z,101846.78
2023-02-28T02:18:42.975Z,101843.91
2023-02-28T02:20:09.625Z,101846.38
2023-02-28T02:21:46.084Z,101848.91
2023-02-28T02:23:10.534Z,101849.38
2023-02-28T02:24:58.329Z,101854.75
2023-02-28T02:26:12.752Z,101853.91
2023-02-28T02:27:43.118Z,101854.47
2023-02-28T02:29:31.980Z,101839.59
2023-02-28T02:31:02.642Z,101837.03
2023-02-28T02:32:26.843Z,101841.41
2023-02-28T02:33:55.898Z,101847.44
2023-02-28T02:35:08.942Z,101844.44
2023-02-28T02:36:19.345Z,101836.75
2023-02-28T02:37:32.337Z,101846.94
2023-02-28T02:38:40.445Z,101843.25
2023-02-28T02:39:51.717Z,101842.88
2023-02-28T02:41:00.271Z,101845.19
2023-02-28T02:42:06.513Z,101848.16
2023-02-28T02:43:15.638Z,101834.72
2023-02-28T02:44:23.800Z,101841.56
2023-02-28T02:45:31.021Z,101843.28
2023-02-28T02:46:35.648Z,101843.16
2023-02-28T02:47:41.158Z,101842.69
2023-02-28T02:48:45.373Z,101848.44
2023-02-28T02:49:51.521Z,101837.28
2023-02-28T02:50:57.606Z,101844.06
2023-02-28T02:52:05.279Z,101846.06
2023-02-28T02:53:09.989Z,101850.22
2023-02-28T02:54:17.910Z,101844.72
2023-02-28T02:55:23.568Z,101845.44
2023-02-28T02:56:30.509Z,101843.97
2023-02-28T02:57:37.017Z,101836.59
2023-02-28T02:58:44.268Z,101846.25
2023-02-28T02:59:45.988Z,101847.53
2023-02-28T03:00:54.102Z,101845.09
2023-02-28T03:01:59.354Z,101844.09
2023-02-28T03:03:03.397Z,101842.69
2023-02-28T03:04:19.640Z,101848.25
2023-02-28T03:05:25.753Z,101852.06
2023-02-28T03:06:28.796Z,101852.06
2023-02-28T03:07:31.475Z,101855.00
2023-02-28T03:08:37.343Z,101851.97
2023-02-28T03:09:39.457Z,101850.69
2023-02-28T03:10:44.043Z,101850.91
2023-02-28T03:11:45.630Z,101851.75
2023-02-28T03:12:58.068Z,101857.78
2023-02-28T03:14:24.569Z,101851.06
2023-02-28T03:15:33.313Z,101842.41
2023-02-28T03:16:44.021Z,101848.44
2023-02-28T03:18:03.437Z,101854.28
2023-02-28T03:19:30.452Z,101853.88
2023-02-28T03:20:44.343Z,101847.75
2023-02-28T03:21:56.330Z,101846.84
2023-02-28T03:23:09.232Z,101846.25
2023-02-28T03:24:15.718Z,101849.06
2023-02-28T03:25:23.138Z,101844.22
2023-02-28T03:26:28.831Z,101854.13
2023-02-28T03:27:34.273Z,101851.06
2023-02-28T03:28:46.411Z,101851.41
2023-02-28T03:29:56.337Z,101845.09
2023-02-28T03:31:03.395Z,101844.91
2023-02-28T03:32:15.530Z,101856.16
2023-02-28T03:33:24.115Z,101853.47
2023-02-28T03:34:30.499Z,101852.59
2023-02-28T03:35:36.526Z,101852.16
2023-02-28T03:36:44.963Z,101848.19
2023-02-28T03:37:52.190Z,101865.88
2023-02-28T03:38:58.646Z,101855.88
2023-02-28T03:40:07.425Z,101853.47
2023-02-28T03:41:15.098Z,101846.78
2023-02-28T03:42:21.763Z,101858.84
2023-02-28T03:43:28.108Z,101853.59
2023-02-28T03:44:36.867Z,101858.28
2023-02-28T03:45:40.638Z,101854.94
2023-02-28T03:46:50.695Z,101851.13
2023-02-28T03:47:56.308Z,101859.78
2023-02-28T03:49:04.317Z,101853.13
2023-02-28T03:50:11.444Z,101853.69
2023-02-28T03:51:19.748Z,101854.00
2023-02-28T03:52:28.051Z,101855.66
2023-02-28T03:53:36.998Z,101855.78
2023-02-28T03:54:43.743Z,101856.88
2023-02-28T03:55:49.202Z,101854.81
2023-02-28T03:56:57.462Z,101860.91
2023-02-28T03:58:06.698Z,101852.22
2023-02-28T03:59:15.714Z,101861.50
2023-02-28T04:00:21.749Z,101854.56
2023-02-28T04:01:30.317Z,101861.72
2023-02-28T04:02:32.377Z,101857.06
2023-02-28T04:03:34.974Z,101861.59
2023-02-28T04:04:36.934Z,101857.34
2023-02-28T04:05:51.835Z,101861.69
2023-02-28T04:07:01.185Z,101870.94
2023-02-28T04:08:08.248Z,101865.19
2023-02-28T04:10:16.664Z,101871.25
2023-02-28T04:11:23.271Z,101868.41
2023-02-28T04:12:25.903Z,101866.53
2023-02-28T04:13:27.381Z,101867.91
2023-02-28T04:14:29.828Z,101868.75
2023-02-28T04:15:31.396Z,101864.41
2023-02-28T04:16:36.172Z,101861.16
2023-02-28T04:17:38.181Z,101865.06
2023-02-28T04:18:40.897Z,101861.31
2023-02-28T04:19:42.445Z,101862.97
2023-02-28T04:20:44.894Z,101861.22
2023-02-28T04:21:50.009Z,101868.78
2023-02-28T04:22:51.792Z,101858.50
2023-02-28T04:23:54.642Z,101865.63
2023-02-28T04:24:57.479Z,101866.41
2023-02-28T04:26:00.074Z,101867.59
2023-02-28T04:27:01.715Z,101866.03
2023-02-28T04:28:05.043Z,101866.72
2023-02-28T04:29:08.214Z,101870.34
2023-02-28T04:30:12.179Z,101873.72
2023-02-28T04:31:13.797Z,101864.84
2023-02-28T04:32:16.486Z,101866.06
2023-02-28T04:33:18.025Z,101869.84
2023-02-28T04:34:22.085Z,101870.31
2023-02-28T04:35:23.679Z,101869.19
2023-02-28T04:36:26.816Z,101865.09
2023-02-28T04:37:29.851Z,101870.50
2023-02-28T04:38:33.700Z,101872.81
2023-02-28T04:39:38.397Z,101877.94
2023-02-28T04:40:41.283Z,101870.69
2023-02-28T04:41:43.988Z,101870.09
2023-02-28T04:42:45.530Z,101871.16
2023-02-28T04:43:48.228Z,101874.34
2023-02-28T04:44:49.767Z,101871.81
2023-02-28T04:45:52.286Z,101875.00
2023-02-28T04:46:53.855Z,101870.81
2023-02-28T04:47:56.348Z,101869.97
2023-02-28T04:48:57.901Z,101881.66
2023-02-28T04:50:00.387Z,101873.25
2023-02-28T04:51:02.469Z,101871.91
2023-02-28T04:52:04.990Z,101873.09
2023-02-28T04:53:06.506Z,101873.72
2023-02-28T04:54:09.699Z,101871.09
2023-02-28T04:55:11.349Z,101873.59
2023-02-28T04:56:16.804Z,101867.00
2023-02-28T04:57:18.328Z,101869.50
2023-02-28T04:58:20.780Z,101872.50
2023-02-28T04:59:22.324Z,101871.91
2023-02-28T05:00:26.108Z,101874.25
2023-02-28T05:01:29.887Z,101867.19
2023-02-28T05:02:32.640Z,101870.78
2023-02-28T05:03:34.171Z,101867.31
2023-02-28T05:04:36.760Z,101863.81
2023-02-28T05:05:38.832Z,101875.41
2023-02-28T05:06:41.327Z,101871.13
2023-02-28T05:07:42.869Z,101872.59
2023-02-28T05:08:45.679Z,101874.88
2023-02-28T05:09:47.316Z,101875.28
2023-02-28T05:10:49.812Z,101874.25
2023-02-28T05:11:52.904Z,101877.97
2023-02-28T05:12:55.662Z,101875.47
2023-02-28T05:13:57.470Z,101875.88
2023-02-28T05:15:00.024Z,101883.22
2023-02-28T05:16:01.539Z,101884.50
2023-02-28T05:17:03.966Z,101886.78
2023-02-28T05:18:05.552Z,101887.09
2023-02-28T05:19:08.086Z,101879.84
2023-02-28T05:20:15.566Z,101884.69
2023-02-28T05:21:28.702Z,101887.63
2023-02-28T05:22:30.517Z,101887.53
2023-02-28T05:23:33.431Z,101883.41
2023-02-28T05:24:35.008Z,101885.06
2023-02-28T05:25:37.694Z,101884.03
2023-02-28T05:26:41.584Z,101882.53
2023-02-28T05:27:45.768Z,101891.25
2023-02-28T05:28:47.287Z,101885.09
2023-02-28T05:29:49.738Z,101891.94
2023-02-28T05:30:51.292Z,101885.69
2023-02-28T05:31:54.049Z,101883.94
2023-02-28T05:32:55.600Z,101886.13
2023-02-28T05:33:58.186Z,101883.72
2023-02-28T05:34:59.665Z,101886.34
2023-02-28T05:36:02.564Z,101880.13
2023-02-28T05:37:04.232Z,101884.53
2023-02-28T05:38:06.734Z,101887.69
2023-02-28T05:39:08.412Z,101889.06
2023-02-28T05:40:12.343Z,101889.88
2023-02-28T05:41:13.865Z,101883.66
2023-02-28T05:42:16.369Z,101885.34
2023-02-28T05:43:19.205Z,101888.28
2023-02-28T05:44:21.661Z,101895.25
2023-02-28T05:45:23.237Z,101899.03
2023-02-28T05:46:25.705Z,101903.03
2023-02-28T05:47:27.278Z,101898.25
2023-02-28T05:48:29.731Z,101901.66
2023-02-28T05:49:31.298Z,101892.06
2023-02-28T05:50:33.773Z,101900.34
2023-02-28T05:51:37.251Z,101902.13
2023-02-28T05:52:39.845Z,101909.31
2023-02-28T05:53:41.696Z,101899.56
2023-02-28T05:54:44.114Z,101898.03
2023-02-28T05:55:45.628Z,101904.28
2023-02-28T05:56:48.085Z,101903.63
2023-02-28T05:57:49.652Z,101900.50
2023-02-28T05:58:53.507Z,101906.13
2023-02-28T05:59:55.047Z,101899.66
2023-02-28T06:00:57.690Z,101915.78
2023-02-28T06:01:59.315Z,101912.63
2023-02-28T06:03:03.225Z,101911.88
2023-02-28T06:04:06.580Z,101912.34
2023-02-28T06:05:13.202Z,101915.97
2023-02-28T06:06:14.796Z,101920.16
2023-02-28T06:07:18.668Z,101906.69
2023-02-28T06:08:20.503Z,101901.03
2023-02-28T06:09:22.985Z,101909.25
2023-02-28T06:10:25.495Z,101908.63
2023-02-28T06:11:28.677Z,101914.09
2023-02-28T06:12:31.654Z,101918.09
2023-02-28T06:13:33.215Z,101924.59
2023-02-28T06:14:37.534Z,101914.75
2023-02-28T06:15:39.373Z,101917.72
2023-02-28T06:16:42.045Z,101917.47
2023-02-28T06:17:44.551Z,101925.34
2023-02-28T06:18:46.980Z,101915.34
2023-02-28T06:19:49.162Z,101915.41
2023-02-28T06:20:55.525Z,101923.19
2023-02-28T06:21:57.950Z,101921.53
2023-02-28T06:23:01.181Z,101924.97
2023-02-28T06:24:05.008Z,101929.44
2023-02-28T06:25:07.981Z,101923.56
2023-02-28T06:26:10.609Z,101923.78
2023-02-28T06:27:12.127Z,101925.78
2023-02-28T06:28:14.935Z,101932.38
2023-02-28T06:29:18.028Z,101935.81
2023-02-28T06:30:25.636Z,101929.78
2023-02-28T06:31:27.783Z,101935.63
2023-02-28T06:32:30.366Z,101931.66
2023-02-28T06:33:31.966Z,101939.69
2023-02-28T06:34:35.677Z,101942.22
2023-02-28T06:35:37.220Z,101948.75
2023-02-28T06:36:39.749Z,101945.53
2023-02-28T06:37:41.911Z,101941.16
2023-02-28T06:38:45.699Z,101947.69
2023-02-28T06:39:47.371Z,101944.63
2023-02-28T06:40:55.416Z,101942.56
2023-02-28T06:41:58.191Z,101946.84
2023-02-28T06:42:59.949Z,101949.75
2023-02-28T06:44:02.419Z,101948.75
2023-02-28T06:45:10.107Z,101947.84
2023-02-28T06:46:15.864Z,101949.44
2023-02-28T06:47:17.499Z,101954.09
2023-02-28T06:48:20.054Z,101945.47
2023-02-28T06:49:22.717Z,101945.41
2023-02-28T06:50:24.287Z,101953.59
2023-02-28T06:51:28.305Z,101956.94
2023-02-28T06:52:29.957Z,101957.28
2023-02-28T06:53:32.722Z,101959.91
2023-02-28T06:54:35.200Z,101960.16
2023-02-28T06:55:38.865Z,101955.38
2023-02-28T06:56:41.429Z,101965.25
2023-02-28T06:57:42.960Z,101960.41
2023-02-28T06:58:48.854Z,101959.38
2023-02-28T06:59:50.477Z,101964.31
2023-02-28T07:00:53.810Z,101963.59
2023-02-28T07:01:56.850Z,101968.13
2023-02-28T07:02:59.328Z,101962.94
2023-02-28T07:04:01.590Z,101975.03
2023-02-28T07:05:04.290Z,101970.59
2023-02-28T07:06:06.436Z,101968.88
2023-02-28T07:07:08.889Z,101958.94
2023-02-28T07:08:10.551Z,101963.84
2023-02-28T07:09:13.186Z,101973.03
2023-02-28T07:10:19.820Z,101966.19
2023-02-28T07:11:24.252Z,101972.94
2023-02-28T07:12:25.824Z,101970.03
2023-02-28T07:13:28.358Z,101973.38
2023-02-28T07:14:30.891Z,101976.94
2023-02-28T07:15:32.441Z,101972.28
2023-02-28T07:16:35.152Z,101958.75
2023-02-28T07:17:38.003Z,101967.31
2023-02-28T07:18:40.473Z,101973.28
2023-02-28T07:19:42.059Z,101965.38
2023-02-28T07:20:44.533Z,101971.81
2023-02-28T07:21:47.131Z,101971.03
2023-02-28T07:22:56.022Z,101959.50
2023-02-28T07:23:58.777Z,101972.69
2023-02-28T07:25:00.297Z,101966.91
2023-02-28T07:26:03.312Z,101972.53
2023-02-28T07:27:04.931Z,101971.78
2023-02-28T07:28:07.393Z,101973.28
2023-02-28T07:29:09.033Z,101972.47
2023-02-28T07:30:13.018Z,101969.28
2023-02-28T07:31:15.820Z,101971.25
2023-02-28T07:32:18.344Z,101974.22
2023-02-28T07:33:21.365Z,101970.13
2023-02-28T07:34:24.581Z,101973.72
2023-02-28T07:35:26.147Z,101976.91
2023-02-28T07:36:28.599Z,101977.63
2023-02-28T07:37:32.374Z,101980.53
2023-02-28T07:38:36.013Z,101971.03
2023-02-28T07:39:37.604Z,101980.34
2023-02-28T07:40:40.082Z,101981.00
2023-02-28T07:41:44.563Z,101981.41
2023-02-28T07:42:47.185Z,101972.69
2023-02-28T07:43:50.184Z,101984.28
2023-02-28T07:44:54.215Z,101986.34
2023-02-28T07:45:56.243Z,101984.03
2023-02-28T07:46:58.847Z,101980.94
2023-02-28T07:48:01.314Z,101984.47
2023-02-28T07:49:04.328Z,101988.09
2023-02-28T07:50:07.936Z,101990.06
2023-02-28T07:51:09.925Z,101989.00
2023-02-28T07:52:12.467Z,101982.38
2023-02-28T07:53:14.986Z,101981.34
2023-02-28T07:54:16.516Z,101982.19
2023-02-28T07:55:19.215Z,101982.16
2023-02-28T07:56:20.873Z,101989.16
2023-02-28T07:57:23.400Z,101988.78
2023-02-28T07:58:26.045Z,101987.97
2023-02-28T07:59:30.565Z,101987.19
2023-02-28T08:00:34.422Z,101982.28
2023-02-28T08:01:36.998Z,101980.28
2023-02-28T08:02:45.723Z,101982.13
2023-02-28T08:03:48.431Z,101986.63
2023-02-28T08:04:51.399Z,101986.91
2023-02-28T08:05:54.504Z,101980.34
2023-02-28T08:06:57.680Z,101977.28
2023-02-28T08:07:59.355Z,101981.00
2023-02-28T08:09:01.787Z,101984.91
2023-02-28T08:10:03.747Z,101979.53
2023-02-28T08:11:06.489Z,101989.06
2023-02-28T08:12:09.624Z,101986.63
2023-02-28T08:13:11.243Z,101986.97
2023-02-28T08:14:13.707Z,101979.81
2023-02-28T08:15:16.722Z,101982.94
2023-02-28T08:16:22.943Z,101967.47
2023-02-28T08:17:25.626Z,101983.31
2023-02-28T08:18:28.139Z,101980.91
2023-02-28T08:19:30.017Z,101976.91
2023-02-28T08:20:35.270Z,101978.50
2023-02-28T08:21:37.136Z,101983.50
2023-02-28T08:22:39.884Z,101981.06
2023-02-28T08:23:42.481Z,101985.22
2023-02-28T08:24:44.956Z,101987.75
2023-02-28T08:25:54.377Z,101986.06
2023-02-28T08:26:57.329Z,101985.00
2023-02-28T08:27:58.925Z,101985.72
2023-02-28T08:29:01.786Z,101981.59
2023-02-28T08:30:04.672Z,101977.75
2023-02-28T08:31:20.955Z,101983.75
2023-02-28T08:32:29.904Z,101985.47
2023-02-28T08:33:32.429Z,101980.09
2023-02-28T08:34:35.102Z,101985.84
2023-02-28T08:35:38.620Z,101978.50
2023-02-28T08:36:41.798Z,101980.94
2023-02-28T08:37:44.278Z,101986.97
2023-02-28T08:38:46.962Z,101982.75
2023-02-28T08:39:49.419Z,101983.03
2023-02-28T08:40:57.851Z,101983.78
2023-02-28T08:42:07.291Z,101990.38
2023-02-28T08:43:09.402Z,101986.19
2023-02-28T08:44:11.985Z,101980.63
2023-02-28T08:45:15.223Z,101987.88
2023-02-28T08:46:16.895Z,101999.06
2023-02-28T08:47:19.617Z,101994.44
2023-02-28T08:48:22.117Z,101995.50
2023-02-28T08:49:24.605Z,101996.75
2023-02-28T08:50:26.175Z,101990.84
2023-02-28T08:51:31.021Z,101996.16
2023-02-28T08:52:33.731Z,101994.56
2023-02-28T08:53:36.211Z,101985.78
2023-02-28T08:54:38.706Z,101990.25
2023-02-28T08:55:41.195Z,101980.78
2023-02-28T08:56:43.658Z,101996.03
2023-02-28T08:57:45.154Z,101998.06
2023-02-28T08:58:48.766Z,101993.13
2023-02-28T08:59:52.437Z,102000.94
2023-02-28T09:00:54.578Z,101997.78
2023-02-28T09:01:57.631Z,102000.13
2023-02-28T09:02:59.230Z,102000.91
2023-02-28T09:04:02.703Z,101993.47
2023-02-28T09:05:06.176Z,101991.91
2023-02-28T09:06:08.814Z,101988.88
2023-02-28T09:07:12.826Z,102004.09
2023-02-28T09:08:16.141Z,101995.84
2023-02-28T09:09:29.746Z,102000.34
2023-02-28T09:10:31.321Z,101991.03
2023-02-28T09:11:34.597Z,101986.78
2023-02-28T09:12:36.625Z,101990.59
2023-02-28T09:13:39.963Z,101994.78
2023-02-28T09:14:42.742Z,101999.44
2023-02-28T09:15:44.321Z,101988.16
2023-02-28T09:16:47.332Z,102000.09
2023-02-28T09:17:49.976Z,101996.13
2023-02-28T09:18:51.506Z,101978.69
2023-02-28T09:19:53.949Z,102000.78
2023-02-28T09:20:56.472Z,101999.03
2023-02-28T09:21:58.903Z,101995.69
2023-02-28T09:23:01.747Z,102001.63
2023-02-28T09:24:04.698Z,101997.81
2023-02-28T09:25:06.677Z,101993.81
2023-02-28T09:26:10.696Z,102003.00
2023-02-28T09:27:13.163Z,101998.66
2023-02-28T09:28:16.865Z,101996.41
2023-02-28T09:29:19.334Z,101996.56
2023-02-28T09:30:21.851Z,101997.03
2023-02-28T09:31:25.758Z,101984.22
2023-02-28T09:32:28.311Z,101997.22
2023-02-28T09:33:30.051Z,101996.03
2023-02-28T09:34:32.760Z,102005.25
2023-02-28T09:35:34.513Z,102010.72
2023-02-28T09:36:45.315Z,102006.09
2023-02-28T09:37:49.466Z,101997.75
2023-02-28T09:38:54.040Z,102002.81
2023-02-28T09:39:56.702Z,102006.34
2023-02-28T09:41:01.585Z,102006.56
2023-02-28T09:42:05.840Z,102000.88
2023-02-28T09:43:14.654Z,102006.16
2023-02-28T09:44:23.216Z,101994.75
2023-02-28T09:45:29.711Z,102002.09
2023-02-28T09:46:37.270Z,102005.34
2023-02-28T09:47:42.520Z,102000.03
2023-02-28T09:48:49.214Z,102004.31
2023-02-28T09:49:52.335Z,101998.19
2023-02-28T09:51:01.159Z,102007.25
2023-02-28T09:52:06.335Z,101999.66
2023-02-28T09:53:18.214Z,102001.69
2023-02-28T09:54:26.374Z,102000.97
2023-02-28T09:55:35.316Z,102000.31
2023-02-28T09:56:44.551Z,101998.06
2023-02-28T09:57:48.112Z,102005.88
2023-02-28T09:58:54.463Z,102001.34
2023-02-28T10:00:09.466Z,101999.16
2023-02-28T10:01:20.710Z,102003.09
2023-02-28T10:02:46.520Z,101997.31
2023-02-28T10:03:58.922Z,101996.94
2023-02-28T10:05:06.771Z,102004.84
2023-02-28T10:06:16.458Z,102000.44
2023-02-28T10:07:37.033Z,102002.00
2023-02-28T10:08:46.136Z,101987.41
2023-02-28T10:09:54.342Z,101997.69
2023-02-28T10:10:59.658Z,101995.13
2023-02-28T10:12:04.816Z,101981.69
2023-02-28T10:13:16.839Z,101999.47
2023-02-28T10:14:21.373Z,102006.16
2023-02-28T10:15:27.260Z,101994.38
2023-02-28T10:16:35.290Z,102000.53
2023-02-28T10:17:54.767Z,102002.81
2023-02-28T10:19:01.768Z,101999.75
2023-02-28T10:20:12.026Z,101988.59
2023-02-28T10:21:21.942Z,102001.59
2023-02-28T10:22:28.409Z,101997.91
2023-02-28T10:23:35.879Z,101995.94
2023-02-28T10:24:42.770Z,101994.16
2023-02-28T10:25:55.219Z,101998.84
2023-02-28T10:27:02.302Z,101997.56
2023-02-28T10:28:12.256Z,102003.41
2023-02-28T10:29:15.159Z,101999.53
2023-02-28T10:30:16.986Z,101997.66
2023-02-28T10:31:21.397Z,101995.16
2023-02-28T10:32:29.173Z,102004.38
2023-02-28T10:33:35.175Z,101984.91
2023-02-28T10:34:38.039Z,102002.38
2023-02-28T10:35:39.573Z,101993.72
2023-02-28T10:36:49.897Z,102001.75
2023-02-28T10:37:55.409Z,101989.78
2023-02-28T10:38:58.049Z,101994.03
2023-02-28T10:39:59.750Z,101997.88
2023-02-28T10:41:09.775Z,101997.91
2023-02-28T10:42:27.016Z,102001.31
2023-02-28T10:43:29.063Z,101996.75
2023-02-28T10:44:31.760Z,101996.84
2023-02-28T10:45:36.037Z,101993.53
2023-02-28T10:46:38.619Z,101992.72
2023-02-28T10:47:53.987Z,101997.50
2023-02-28T10:49:05.085Z,101990.72
2023-02-28T10:50:07.297Z,101991.25
2023-02-28T10:51:12.339Z,101993.50
2023-02-28T10:52:15.238Z,101989.63
2023-02-28T10:54:00.539Z,101982.25
2023-02-28T10:55:21.799Z,101976.28
2023-02-28T10:56:26.676Z,101978.81
2023-02-28T10:57:31.787Z,101978.03
2023-02-28T10:58:49.820Z,101968.53
2023-02-28T10:59:55.909Z,101979.41
2023-02-28T11:00:58.368Z,101982.69
2023-02-28T11:02:01.038Z,101974.53
2023-02-28T11:03:02.821Z,101970.09
2023-02-28T11:04:05.697Z,101970.19
2023-02-28T11:05:26.485Z,101972.63
2023-02-28T11:06:32.676Z,101971.25
2023-02-28T11:07:50.500Z,101961.69
2023-02-28T11:08:56.965Z,101968.53
2023-02-28T11:09:59.667Z,101956.63
2023-02-28T11:11:06.975Z,101958.75
2023-02-28T11:12:23.587Z,101951.69
2023-02-28T11:13:28.857Z,101952.78
2023-02-28T11:14:35.218Z,101940.84
2023-02-28T11:15:37.851Z,101944.06
2023-02-28T11:16:40.545Z,101947.84
2023-02-28T11:17:45.007Z,101945.97
2023-02-28T11:18:50.938Z,101942.78
2023-02-28T11:19:58.016Z,101949.13
2023-02-28T11:21:03.733Z,101953.59
2023-02-28T11:22:10.292Z,101953.56
2023-02-28T11:23:14.679Z,101945.91
2023-02-28T11:24:24.994Z,101953.84
2023-02-28T11:25:32.051Z,101950.63
2023-02-28T11:26:40.316Z,101952.81
2023-02-28T11:27:49.379Z,101942.81
2023-02-28T11:29:10.945Z,101949.13
2023-02-28T11:30:33.786Z,101948.91
2023-02-28T11:31:36.430Z,101937.84
2023-02-28T11:32:38.726Z,101941.84
2023-02-28T11:33:45.874Z,101938.50
2023-02-28T11:35:01.932Z,101933.91
2023-02-28T11:36:10.936Z,101936.03
2023-02-28T11:37:16.713Z,101937.28
2023-02-28T11:38:18.581Z,101945.31
2023-02-28T11:39:21.576Z,101958.56
2023-02-28T11:40:32.103Z,101945.66
2023-02-28T11:41:59.976Z,101947.31
2023-02-28T11:43:14.900Z,101951.09
2023-02-28T11:44:37.216Z,101944.91
2023-02-28T11:45:50.543Z,101954.63
2023-02-28T11:46:56.559Z,101941.13
2023-02-28T11:48:07.248Z,101944.41
2023-02-28T11:49:32.092Z,101947.22
2023-02-28T11:50:48.738Z,101942.41
2023-02-28T11:51:57.896Z,101948.81
2023-02-28T11:53:03.155Z,101934.78
2023-02-28T11:54:32.756Z,101940.38
2023-02-28T11:55:38.564Z,101943.84
2023-02-28T11:56:45.713Z,101940.56
2023-02-28T11:58:02.616Z,101939.09
2023-02-28T11:59:29.772Z,101950.84
2023-02-28T12:00:42.455Z,101943.72
2023-02-28T12:02:04.822Z,101964.28
2023-02-28T12:03:21.065Z,101944.00
2023-02-28T12:04:32.806Z,101945.66
2023-02-28T12:05:44.934Z,101932.38
2023-02-28T12:06:54.500Z,101942.31
2023-02-28T12:08:04.636Z,101945.28
2023-02-28T12:09:22.572Z,101948.88
2023-02-28T12:10:28.296Z,101943.69
2023-02-28T12:11:42.816Z,101938.16
2023-02-28T12:12:52.451Z,101928.41
2023-02-28T12:14:05.632Z,101932.50
2023-02-28T12:15:26.217Z,101935.78
2023-02-28T12:16:38.771Z,101937.34
2023-02-28T12:17:53.140Z,101938.38
2023-02-28T12:19:08.699Z,101940.47
2023-02-28T12:20:20.591Z,101939.19
2023-02-28T12:21:32.447Z,101938.31
2023-02-28T12:22:39.982Z,101932.88
2023-02-28T12:23:57.962Z,101940.25
2023-02-28T12:25:23.219Z,101932.25
2023-02-28T12:26:34.057Z,101937.25
2023-02-28T12:27:38.101Z,101930.88
2023-02-28T12:28:47.401Z,101927.88
2023-02-28T12:29:53.219Z,101928.28